Time;durP1;ratioP1;P1;durP2;ratioP2;P2;SDS_P1;SDS_P2;PMS_P1;PMS_P2;Temp;Humidity;BMP_temperature;BMP_pressure;BME280_temperature;BME280_humidity;BME280_pressure;Samples;Min_cycle;Max_cycle;Signal;HPM_P1;HPM_P2
2022/02/18 00:00:34;;;;;;;11.10;3.33;;;8.60;99.90;;;;;;4955206;29;20647;-70
2022/02/18 00:03:00;;;;;;;21.77;3.77;;;8.60;99.90;;;;;;4960962;28;20672;-75
2022/02/18 00:05:25;;;;;;;23.23;3.80;;;8.60;99.90;;;;;;4973173;28;20210;-73
2022/02/18 00:07:51;;;;;;;16.57;3.90;;;8.50;99.90;;;;;;4973663;28;20203;-73
2022/02/18 00:10:16;;;;;;;20.23;3.77;;;8.50;99.90;;;;;;4972208;28;20254;-72
2022/02/18 00:12:42;;;;;;;20.20;3.67;;;8.50;99.90;;;;;;4973293;28;20240;-72
2022/02/18 00:15:08;;;;;;;21.80;4.10;;;8.50;99.90;;;;;;4973165;28;20617;-72
2022/02/18 00:17:34;;;;;;;26.53;7.13;;;8.40;99.90;;;;;;4973221;28;20176;-72
2022/02/18 00:19:59;;;;;;;21.03;4.97;;;8.40;99.90;;;;;;4973467;28;20422;-73
2022/02/18 00:22:25;;;;;;;14.97;2.53;;;8.40;99.90;;;;;;4973274;28;20686;-72
2022/02/18 00:24:51;;;;;;;20.20;3.33;;;8.40;99.90;;;;;;4972977;28;20983;-73
2022/02/18 00:27:16;;;;;;;11.13;2.43;;;8.40;99.90;;;;;;4973175;28;20179;-73
2022/02/18 00:29:42;;;;;;;12.93;2.97;;;8.40;99.90;;;;;;4973260;28;20211;-73
2022/02/18 00:32:08;;;;;;;19.47;3.53;;;8.40;99.90;;;;;;4972966;28;20453;-73
2022/02/18 00:34:38;;;;;;;15.93;3.43;;;8.40;99.90;;;;;;4971301;28;20181;-72
2022/02/18 00:37:04;;;;;;;10.77;3.27;;;8.40;99.90;;;;;;4973157;28;20411;-73
2022/02/18 00:39:30;;;;;;;11.30;3.40;;;8.40;99.90;;;;;;4973129;28;20421;-74
2022/02/18 00:41:56;;;;;;;19.93;3.90;;;8.40;99.90;;;;;;4972953;28;20456;-72
2022/02/18 00:44:22;;;;;;;17.53;3.00;;;8.40;99.90;;;;;;4972327;28;20205;-72
2022/02/18 00:46:48;;;;;;;19.73;4.63;;;8.50;99.90;;;;;;4972906;28;20548;-71
2022/02/18 00:49:13;;;;;;;15.40;3.50;;;8.50;99.90;;;;;;4972884;28;20205;-72
2022/02/18 00:51:39;;;;;;;14.00;3.27;;;8.50;99.90;;;;;;4972794;28;20445;-74
2022/02/18 00:54:04;;;;;;;15.13;3.10;;;8.50;99.90;;;;;;4972530;28;20675;-72
2022/02/18 00:56:30;;;;;;;20.40;4.37;;;8.50;99.90;;;;;;4972573;28;20190;-72
2022/02/18 00:59:00;;;;;;;14.13;3.30;;;8.50;99.90;;;;;;4972934;28;20182;-73
2022/02/18 05:32:25;;;;;;;12.90;2.57;;;8.40;99.90;;;;;;5261402;23;20495;-71
2022/02/18 05:34:50;;;;;;;10.83;3.00;;;8.40;99.90;;;;;;4970381;28;20417;-72
2022/02/18 05:37:16;;;;;;;17.30;3.00;;;8.40;99.90;;;;;;4972244;28;20179;-72
2022/02/18 05:39:41;;;;;;;8.20;1.90;;;8.30;99.90;;;;;;4972095;28;20183;-73
2022/02/18 05:42:07;;;;;;;16.53;3.83;;;8.30;99.90;;;;;;4971033;28;20597;-74
2022/02/18 05:44:34;;;;;;;11.37;2.60;;;8.40;99.90;;;;;;4971962;28;20590;-72
2022/02/18 05:47:00;;;;;;;11.73;3.17;;;8.40;99.90;;;;;;4971543;28;20183;-73
2022/02/18 05:49:27;;;;;;;7.27;2.40;;;8.40;99.90;;;;;;4970945;28;20567;-72
2022/02/18 05:51:52;;;;;;;6.50;1.83;;;8.40;99.90;;;;;;4971394;28;20984;-72
2022/02/18 05:54:18;;;;;;;8.97;2.50;;;8.40;99.90;;;;;;4972032;28;20446;-72
2022/02/18 05:56:43;;;;;;;17.93;2.97;;;8.40;99.90;;;;;;4972016;28;20210;-71
2022/02/18 05:59:09;;;;;;;7.13;3.10;;;8.40;99.90;;;;;;4972546;28;20730;-73
2022/02/18 06:01:35;;;;;;;11.67;2.70;;;8.40;99.90;;;;;;4972089;28;20201;-72
2022/02/18 06:04:00;;;;;;;11.37;2.40;;;8.40;99.90;;;;;;4972070;28;20175;-72
2022/02/18 06:06:29;;;;;;;6.50;2.30;;;8.50;99.90;;;;;;4972282;28;20200;-73
2022/02/18 06:08:54;;;;;;;10.73;2.53;;;8.50;99.90;;;;;;4972309;28;20179;-74
2022/02/18 06:11:20;;;;;;;11.37;2.87;;;8.50;99.90;;;;;;4971980;28;20531;-72
2022/02/18 06:13:45;;;;;;;14.07;3.10;;;8.50;99.90;;;;;;4972489;28;20181;-70
2022/02/18 06:16:11;;;;;;;7.43;2.20;;;8.60;99.90;;;;;;4975637;28;20555;-71
2022/02/18 06:18:36;;;;;;;14.20;2.37;;;8.60;99.90;;;;;;4975302;28;20172;-70
2022/02/18 06:21:03;;;;;;;10.50;2.50;;;8.80;99.90;;;;;;4975422;28;20201;-71
2022/02/18 06:23:29;;;;;;;9.00;1.80;;;8.70;99.90;;;;;;4975068;28;20226;-70
2022/02/18 06:25:55;;;;;;;10.70;2.27;;;8.90;99.90;;;;;;4975511;28;20464;-70
2022/02/18 06:28:20;;;;;;;13.33;2.93;;;9.00;99.90;;;;;;4975254;28;20189;-70
2022/02/18 06:30:46;;;;;;;9.17;2.37;;;9.10;99.90;;;;;;4975029;28;20217;-71
2022/02/18 06:33:11;;;;;;;10.17;3.13;;;9.10;99.90;;;;;;4975202;28;20664;-71
2022/02/18 06:35:39;;;;;;;15.83;3.00;;;9.10;99.90;;;;;;4971730;28;20707;-71
2022/02/18 06:38:07;;;;;;;16.63;2.50;;;9.10;99.90;;;;;;4972820;28;20179;-72
2022/02/18 06:40:33;;;;;;;17.97;2.73;;;9.20;99.90;;;;;;4969658;28;20422;-69
2022/02/18 06:42:59;;;;;;;12.70;2.10;;;9.20;99.90;;;;;;4973972;28;20980;-70
2022/02/18 06:45:25;;;;;;;16.03;3.20;;;9.20;99.90;;;;;;4974376;28;20423;-70
2022/02/18 06:47:50;;;;;;;11.17;2.10;;;9.20;99.90;;;;;;4974492;28;20212;-70
2022/02/18 06:50:17;;;;;;;17.97;2.57;;;9.20;99.90;;;;;;4974584;28;20207;-71
2022/02/18 06:52:46;;;;;;;14.87;2.60;;;9.20;99.90;;;;;;4974914;28;20206;-70
2022/02/18 06:55:12;;;;;;;7.53;2.20;;;9.20;99.90;;;;;;4974964;28;20408;-71
2022/02/18 06:57:41;;;;;;;10.03;3.40;;;9.30;99.90;;;;;;4974779;28;20409;-71
2022/02/18 07:00:09;;;;;;;17.00;3.00;;;9.30;99.90;;;;;;4974869;28;20654;-70
2022/02/18 07:02:35;;;;;;;8.03;1.90;;;9.20;99.90;;;;;;4974281;28;20784;-71
2022/02/18 07:05:00;;;;;;;9.43;3.40;;;9.20;99.90;;;;;;4974688;28;20414;-70
2022/02/18 07:07:26;;;;;;;9.50;2.10;;;9.30;99.90;;;;;;4974460;28;20191;-71
2022/02/18 07:09:51;;;;;;;12.30;2.90;;;9.30;99.90;;;;;;4974657;28;20208;-71
2022/02/18 07:12:17;;;;;;;9.30;2.70;;;9.30;99.90;;;;;;4974043;28;20582;-70
2022/02/18 07:14:42;;;;;;;16.10;2.30;;;9.30;99.90;;;;;;4974332;28;20231;-70
2022/02/18 07:17:08;;;;;;;15.17;3.00;;;9.30;99.90;;;;;;4974406;28;20226;-70
2022/02/18 07:19:34;;;;;;;5.20;2.27;;;9.40;99.90;;;;;;4974346;28;20191;-71
2022/02/18 07:22:00;;;;;;;19.47;2.80;;;9.50;99.90;;;;;;4974363;28;20230;-70
2022/02/18 07:24:26;;;;;;;9.67;2.70;;;9.50;99.90;;;;;;4973998;28;20462;-71
2022/02/18 07:26:51;;;;;;;14.30;3.40;;;9.50;99.90;;;;;;4973493;28;20420;-71
2022/02/18 07:29:17;;;;;;;7.97;2.13;;;9.60;99.90;;;;;;4974050;28;20194;-71
2022/02/18 07:31:42;;;;;;;6.97;2.10;;;9.60;99.90;;;;;;4973953;28;20211;-70
2022/02/18 07:34:08;;;;;;;18.10;2.50;;;9.60;99.90;;;;;;4974338;28;20206;-70
2022/02/18 07:36:34;;;;;;;10.03;2.50;;;9.60;99.90;;;;;;4973348;28;20183;-69
2022/02/18 07:38:59;;;;;;;6.67;1.90;;;9.60;99.90;;;;;;4972451;28;20179;-69
2022/02/18 07:41:25;;;;;;;14.20;2.90;;;9.60;99.90;;;;;;4973551;28;20504;-71
2022/02/18 07:43:51;;;;;;;6.77;1.73;;;9.70;99.90;;;;;;4972822;28;20191;-69
2022/02/18 07:46:17;;;;;;;7.57;3.47;;;9.70;99.90;;;;;;4973778;28;20184;-69
2022/02/18 07:48:42;;;;;;;13.60;3.37;;;9.70;99.90;;;;;;4973661;28;20410;-69
2022/02/18 07:51:09;;;;;;;13.70;2.00;;;9.70;99.90;;;;;;4973513;28;21014;-71
2022/02/18 07:53:35;;;;;;;17.00;2.80;;;9.70;99.90;;;;;;4971740;28;20186;-69
2022/02/18 07:56:00;;;;;;;6.50;1.53;;;9.80;99.90;;;;;;4971903;28;20430;-69
2022/02/18 07:58:26;;;;;;;5.33;1.90;;;9.80;99.90;;;;;;4973431;28;20799;-69
2022/02/18 08:00:51;;;;;;;9.93;2.00;;;9.90;99.90;;;;;;4973271;28;20543;-68
2022/02/18 08:03:17;;;;;;;11.97;1.93;;;9.90;99.90;;;;;;4973070;28;20192;-69
2022/02/18 08:05:42;;;;;;;13.17;2.27;;;10.10;99.90;;;;;;4973323;28;20194;-69
2022/02/18 08:08:08;;;;;;;4.10;1.30;;;10.20;99.90;;;;;;4973119;28;20250;-70
2022/02/18 08:10:33;;;;;;;9.00;2.10;;;10.30;99.90;;;;;;4973113;28;20562;-70
2022/02/18 08:12:59;;;;;;;10.23;1.27;;;10.40;99.90;;;;;;4972925;28;20186;-70
2022/02/18 08:15:25;;;;;;;7.40;2.13;;;10.50;99.90;;;;;;4972924;28;20169;-70
2022/02/18 08:17:50;;;;;;;5.83;1.63;;;10.60;99.90;;;;;;4973144;28;20570;-69
2022/02/18 08:20:16;;;;;;;4.03;1.67;;;10.60;99.90;;;;;;4973272;28;20214;-70
2022/02/18 08:22:41;;;;;;;4.70;1.10;;;10.70;99.90;;;;;;4973024;28;20210;-70
2022/02/18 08:25:09;;;;;;;11.23;2.03;;;10.80;99.90;;;;;;4972470;28;20567;-69
2022/02/18 08:27:34;;;;;;;4.37;1.20;;;10.90;99.90;;;;;;4972934;28;20182;-70
2022/02/18 08:30:00;;;;;;;2.13;1.20;;;11.00;99.90;;;;;;4973040;28;20463;-70
2022/02/18 08:32:25;;;;;;;7.83;1.40;;;11.00;99.90;;;;;;4972374;28;20219;-69
2022/02/18 08:34:51;;;;;;;6.17;1.20;;;11.10;99.90;;;;;;4972462;28;20172;-70
2022/02/18 08:37:16;;;;;;;3.70;1.13;;;11.20;99.90;;;;;;4972630;28;20183;-70
2022/02/18 08:39:42;;;;;;;3.93;1.10;;;11.20;99.90;;;;;;4972628;28;20242;-70
2022/02/18 08:42:08;;;;;;;8.00;1.63;;;11.20;99.90;;;;;;4972732;28;20196;-70
2022/02/18 08:44:34;;;;;;;1.67;0.93;;;11.20;99.90;;;;;;4972279;28;20249;-71
2022/02/18 08:47:00;;;;;;;3.60;0.90;;;11.30;99.90;;;;;;4970488;28;20873;-71
2022/02/18 08:49:25;;;;;;;4.30;1.30;;;11.40;99.90;;;;;;4969916;28;20175;-70
2022/02/18 08:51:51;;;;;;;1.83;1.47;;;11.50;99.90;;;;;;4971121;28;20612;-70
2022/02/18 08:54:17;;;;;;;4.40;1.27;;;11.60;99.90;;;;;;4971937;28;20191;-70
2022/02/18 08:56:44;;;;;;;2.70;0.93;;;11.70;99.90;;;;;;4972653;28;20415;-69
2022/02/18 08:59:10;;;;;;;3.67;0.77;;;11.70;99.90;;;;;;4972041;28;20184;-70
2022/02/18 09:01:36;;;;;;;0.67;0.67;;;11.80;99.90;;;;;;4972411;28;20886;-70
2022/02/18 09:04:01;;;;;;;2.90;0.80;;;11.90;99.90;;;;;;4972453;28;20172;-69
2022/02/18 09:06:27;;;;;;;5.10;1.53;;;12.00;99.90;;;;;;4972823;28;20176;-70
2022/02/18 09:08:52;;;;;;;3.47;0.90;;;12.10;99.90;;;;;;4971930;28;20172;-70
2022/02/18 09:11:19;;;;;;;6.17;1.00;;;12.30;99.90;;;;;;4970829;28;20207;-69
2022/02/18 09:13:45;;;;;;;2.13;0.70;;;12.40;99.90;;;;;;4972060;28;20238;-69
2022/02/18 09:16:11;;;;;;;4.00;0.90;;;12.50;99.90;;;;;;4972541;28;20412;-70
2022/02/18 09:18:37;;;;;;;4.23;0.70;;;12.50;99.90;;;;;;4971873;28;20419;-71
2022/02/18 09:21:02;;;;;;;1.30;0.73;;;12.50;99.90;;;;;;4972475;28;20199;-70
2022/02/18 09:23:28;;;;;;;3.03;2.03;;;12.50;99.90;;;;;;4971985;28;20422;-70
2022/02/18 09:25:54;;;;;;;7.53;0.83;;;12.60;99.90;;;;;;4972479;28;20604;-71
2022/02/18 09:28:20;;;;;;;3.73;1.40;;;12.60;99.90;;;;;;4971694;28;20180;-69
2022/02/18 09:30:47;;;;;;;4.20;0.83;;;12.70;99.90;;;;;;4972092;28;20208;-71
2022/02/18 09:33:14;;;;;;;1.70;0.90;;;12.90;99.90;;;;;;4972120;28;20229;-69
2022/02/18 09:35:44;;;;;;;2.43;1.57;;;13.00;99.90;;;;;;4972226;28;20766;-69
2022/02/18 09:38:10;;;;;;;2.20;0.80;;;13.20;99.90;;;;;;4971981;28;20494;-69
2022/02/18 09:40:36;;;;;;;1.50;0.70;;;13.40;99.90;;;;;;4971742;28;20433;-70
2022/02/18 09:43:02;;;;;;;4.67;0.90;;;13.50;99.90;;;;;;4972053;28;20419;-70
2022/02/18 09:45:28;;;;;;;2.57;0.90;;;13.60;99.90;;;;;;4972056;28;20199;-70
2022/02/18 09:47:55;;;;;;;2.70;0.87;;;13.70;99.90;;;;;;4971936;28;20407;-70
2022/02/18 09:50:21;;;;;;;2.60;0.90;;;13.80;99.90;;;;;;4974825;28;20462;-70
2022/02/18 09:52:46;;;;;;;1.03;0.60;;;13.90;99.90;;;;;;4974295;28;20447;-69
2022/02/18 09:55:12;;;;;;;2.83;0.80;;;14.20;99.90;;;;;;4975905;28;20176;-71
2022/02/18 09:57:43;;;;;;;1.50;0.80;;;14.70;99.90;;;;;;4975555;28;20258;-70
2022/02/18 10:00:10;;;;;;;2.03;0.60;;;15.10;99.90;;;;;;4975463;28;20200;-69
2022/02/18 10:02:36;;;;;;;1.67;0.70;;;15.10;99.90;;;;;;4975480;28;20437;-70
2022/02/18 10:05:05;;;;;;;2.90;0.80;;;15.00;99.90;;;;;;4975661;28;20457;-70
2022/02/18 10:07:31;;;;;;;4.60;0.73;;;15.10;99.90;;;;;;4975554;28;20431;-69
2022/02/18 10:09:57;;;;;;;1.70;0.60;;;15.10;99.90;;;;;;4975454;28;20462;-70
2022/02/18 10:12:38;;;;;;;0.60;0.60;;;15.10;99.90;;;;;;4975549;28;20435;-71
2022/02/18 10:15:09;;;;;;;1.57;0.90;;;15.10;99.90;;;;;;4975429;28;20188;-70
2022/02/18 10:17:45;;;;;;;7.47;0.83;;;15.20;99.90;;;;;;4975266;28;20922;-69
2022/02/18 10:20:17;;;;;;;1.47;0.70;;;15.00;99.90;;;;;;4975113;28;20510;-70
2022/02/18 10:23:04;;;;;;;3.47;0.70;;;14.90;99.90;;;;;;4975295;28;20453;-70
2022/02/18 10:25:32;;;;;;;2.20;0.60;;;15.30;99.90;;;;;;4975130;28;20422;-70
2022/02/18 10:27:58;;;;;;;2.33;0.60;;;15.50;99.90;;;;;;4975290;28;20441;-69
2022/02/18 10:30:26;;;;;;;2.10;0.60;;;15.80;99.90;;;;;;4974867;28;20541;-69
2022/02/18 10:32:53;;;;;;;7.20;1.10;;;16.20;99.90;;;;;;4974985;28;20462;-70
2022/02/18 10:35:21;;;;;;;3.70;0.93;;;16.40;99.90;;;;;;4975124;28;20427;-70
2022/02/18 10:37:50;;;;;;;2.83;0.80;;;16.50;99.90;;;;;;4974933;28;20420;-69
2022/02/18 10:40:18;;;;;;;3.17;0.50;;;16.40;99.90;;;;;;4974730;28;20424;-70
2022/02/18 10:42:45;;;;;;;1.27;0.60;;;16.50;99.90;;;;;;4974303;28;20443;-70
2022/02/18 10:45:19;;;;;;;4.90;1.07;;;16.60;99.90;;;;;;4975215;28;20411;-69
2022/02/18 10:47:45;;;;;;;2.00;0.60;;;16.70;99.90;;;;;;4974696;28;20431;-69
2022/02/18 10:50:15;;;;;;;2.10;0.70;;;16.60;99.90;;;;;;4974666;28;20968;-70
2022/02/18 10:52:41;;;;;;;2.63;0.80;;;16.40;99.90;;;;;;4974690;28;20443;-70
2022/02/18 10:55:08;;;;;;;1.13;0.80;;;16.40;99.90;;;;;;4974847;28;20418;-71
2022/02/18 10:57:34;;;;;;;3.13;0.80;;;16.50;99.90;;;;;;4974618;28;20587;-70
2022/02/18 11:00:13;;;;;;;5.30;0.63;;;16.70;99.90;;;;;;4973746;28;20423;-71
2022/02/18 11:02:42;;;;;;;2.17;0.50;;;17.00;99.90;;;;;;4974410;28;20479;-71
2022/02/18 11:05:39;;;;;;;1.70;0.60;;;17.30;99.90;;;;;;4974469;28;20431;-69
2022/02/18 11:08:05;;;;;;;5.50;0.80;;;17.40;99.90;;;;;;4941669;28;20522;-70
2022/02/18 11:10:37;;;;;;;1.73;0.60;;;17.30;99.90;;;;;;4974130;28;20865;-71
2022/02/18 11:13:03;;;;;;;3.40;0.60;;;17.20;99.90;;;;;;4974451;28;20187;-71
2022/02/18 11:15:29;;;;;;;0.63;0.53;;;17.20;99.90;;;;;;4974316;28;20408;-69
2022/02/18 11:17:55;;;;;;;1.30;0.60;;;17.30;99.90;;;;;;4974192;28;20411;-69
2022/02/18 11:20:23;;;;;;;1.70;0.60;;;17.20;99.90;;;;;;4974263;28;20423;-68
2022/02/18 11:22:52;;;;;;;2.00;0.57;;;17.10;99.90;;;;;;4974171;28;20497;-69
2022/02/18 11:25:20;;;;;;;3.93;0.47;;;17.20;99.90;;;;;;4974332;28;20427;-69
2022/02/18 11:27:45;;;;;;;5.60;2.40;;;17.20;99.90;;;;;;4973968;28;20443;-70
2022/02/18 11:30:11;;;;;;;2.43;0.70;;;17.20;99.90;;;;;;4973896;28;20467;-71
2022/02/18 11:32:45;;;;;;;5.07;2.40;;;17.20;99.90;;;;;;4973669;28;20728;-71
2022/02/18 11:35:35;;;;;;;13.77;1.13;;;17.10;99.90;;;;;;4974341;28;20604;-70
2022/02/18 11:38:25;;;;;;;2.10;0.50;;;16.80;99.90;;;;;;4973937;28;20416;-69
2022/02/18 11:41:16;;;;;;;2.87;0.40;;;16.60;99.90;;;;;;4973782;28;20415;-70
2022/02/18 11:43:48;;;;;;;3.10;1.13;;;16.40;99.90;;;;;;4973679;28;20497;-70
2022/02/18 11:46:22;;;;;;;1.40;0.60;;;16.50;99.90;;;;;;4974133;28;20487;-70
2022/02/18 11:48:49;;;;;;;4.23;0.87;;;16.70;99.90;;;;;;4973583;28;20490;-69
2022/02/18 11:51:21;;;;;;;7.10;0.77;;;16.70;99.90;;;;;;4973494;28;20471;-70
2022/02/18 11:53:52;;;;;;;2.77;0.60;;;16.90;99.90;;;;;;4973559;28;20466;-70
2022/02/18 11:56:41;;;;;;;2.33;0.80;;;17.00;99.90;;;;;;4973643;28;20423;-69
2022/02/18 11:59:10;;;;;;;0.60;0.50;;;16.90;99.90;;;;;;4973564;28;20419;-70
2022/02/18 12:02:00;;;;;;;1.20;0.50;;;16.90;99.90;;;;;;4973410;28;20436;-69
2022/02/18 12:04:27;;;;;;;1.63;0.60;;;17.00;99.90;;;;;;4973293;28;20494;-71
2022/02/18 12:07:19;;;;;;;1.77;0.70;;;17.10;99.90;;;;;;4973731;28;20478;-70
2022/02/18 12:09:57;;;;;;;6.23;0.57;;;17.10;99.90;;;;;;4973222;28;20806;-71
2022/02/18 12:12:34;;;;;;;3.37;0.70;;;17.00;99.90;;;;;;4972618;28;20806;-69
2022/02/18 12:15:28;;;;;;;2.60;0.60;;;16.90;99.90;;;;;;4974189;28;20415;-71
2022/02/18 12:18:05;;;;;;;4.20;0.70;;;16.90;99.90;;;;;;4973879;28;20420;-71
2022/02/18 12:20:39;;;;;;;9.73;0.97;;;17.00;99.90;;;;;;4973793;28;20574;-72
2022/02/18 12:23:28;;;;;;;9.47;1.00;;;17.10;99.90;;;;;;4974244;28;21009;-71
2022/02/18 12:26:19;;;;;;;1.83;0.50;;;17.20;99.90;;;;;;4974556;28;20513;-72
2022/02/18 12:28:46;;;;;;;2.93;0.67;;;17.30;99.90;;;;;;4973236;28;20466;-70
2022/02/18 12:31:12;;;;;;;2.93;0.60;;;17.20;99.90;;;;;;4973507;28;20479;-71
2022/02/18 12:33:38;;;;;;;4.13;0.77;;;17.10;99.90;;;;;;4973001;28;20442;-71
2022/02/18 12:36:09;;;;;;;1.90;0.70;;;17.00;99.90;;;;;;4973226;28;20501;-72
2022/02/18 12:38:35;;;;;;;2.30;0.50;;;16.90;99.90;;;;;;4972903;28;20422;-72
2022/02/18 12:41:03;;;;;;;1.93;0.70;;;16.90;99.90;;;;;;4973039;28;20469;-71
2022/02/18 12:43:29;;;;;;;1.23;0.63;;;17.10;99.90;;;;;;4972438;28;20459;-70
2022/02/18 12:46:02;;;;;;;2.87;0.67;;;17.10;99.90;;;;;;4972936;28;20419;-69
2022/02/18 12:48:35;;;;;;;2.93;1.13;;;17.00;99.90;;;;;;4972651;28;20423;-70
2022/02/18 12:51:07;;;;;;;3.70;0.90;;;17.00;99.90;;;;;;4973253;28;20475;-70
2022/02/18 12:53:32;;;;;;;1.80;0.50;;;17.00;99.90;;;;;;4972212;28;20411;-70
2022/02/18 12:55:58;;;;;;;1.43;0.70;;;16.90;99.90;;;;;;4972969;28;20427;-70
2022/02/18 12:58:23;;;;;;;0.70;0.60;;;16.80;99.90;;;;;;4972257;28;20176;-70
2022/02/18 13:00:49;;;;;;;1.67;0.70;;;16.60;99.90;;;;;;4972655;28;20271;-70
2022/02/18 13:03:15;;;;;;;3.53;0.70;;;16.60;99.90;;;;;;4972139;28;20203;-71
2022/02/18 13:05:41;;;;;;;1.50;0.57;;;16.50;99.90;;;;;;4972443;28;20184;-69
2022/02/18 13:08:22;;;;;;;1.97;0.50;;;16.40;99.90;;;;;;4972348;28;20183;-70
2022/02/18 13:10:50;;;;;;;4.10;1.90;;;16.30;99.90;;;;;;4972578;28;20506;-70
2022/02/18 13:13:21;;;;;;;2.40;0.57;;;16.30;99.90;;;;;;4972178;28;20408;-71
2022/02/18 13:15:54;;;;;;;3.53;0.80;;;16.30;99.90;;;;;;4972575;28;20412;-70
2022/02/18 13:18:20;;;;;;;2.27;0.50;;;16.30;99.90;;;;;;4972017;28;20562;-70
2022/02/18 13:20:48;;;;;;;2.10;0.67;;;16.30;99.90;;;;;;4972503;28;20425;-70
2022/02/18 13:23:16;;;;;;;4.57;0.70;;;16.40;99.90;;;;;;4972130;28;20510;-70
2022/02/18 13:25:52;;;;;;;1.13;0.50;;;16.40;99.90;;;;;;4976329;28;20474;-69
2022/02/18 13:28:33;;;;;;;0.70;0.50;;;16.50;99.90;;;;;;4976059;28;20418;-71
2022/02/18 13:31:05;;;;;;;1.10;0.63;;;16.50;99.90;;;;;;4974872;28;20482;-70
2022/02/18 13:33:33;;;;;;;2.60;0.70;;;16.50;99.90;;;;;;4976306;28;20442;-69
2022/02/18 13:36:06;;;;;;;2.63;0.50;;;16.50;99.90;;;;;;4976370;28;20450;-70
2022/02/18 13:38:41;;;;;;;6.03;0.73;;;16.40;99.90;;;;;;4975744;28;20464;-70
2022/02/18 13:41:17;;;;;;;3.23;0.60;;;16.30;99.90;;;;;;4976013;28;20431;-70
2022/02/18 13:43:53;;;;;;;2.20;0.80;;;16.20;99.90;;;;;;4975291;28;20453;-70
2022/02/18 13:46:33;;;;;;;1.57;0.53;;;16.20;99.90;;;;;;4975842;28;20974;-69
2022/02/18 13:49:02;;;;;;;2.43;0.77;;;16.10;99.90;;;;;;4971662;28;20446;-70
2022/02/18 13:51:34;;;;;;;0.60;0.53;;;16.20;99.90;;;;;;4975077;28;20848;-68
2022/02/18 13:54:00;;;;;;;5.17;1.10;;;16.20;99.90;;;;;;4974764;28;20935;-69
2022/02/18 13:56:27;;;;;;;3.40;0.70;;;16.20;99.90;;;;;;4975188;28;20545;-70
2022/02/18 13:59:12;;;;;;;3.07;0.57;;;16.10;99.90;;;;;;4975148;28;20466;-70
2022/02/18 14:01:38;;;;;;;12.40;0.70;;;16.10;99.90;;;;;;4975018;28;20459;-69
2022/02/18 14:04:03;;;;;;;1.10;0.80;;;16.10;99.90;;;;;;4974665;28;20531;-69
2022/02/18 14:06:31;;;;;;;1.67;0.70;;;16.10;99.90;;;;;;4975148;28;20329;-71
2022/02/18 14:08:58;;;;;;;4.13;0.90;;;16.00;99.90;;;;;;4975159;28;20231;-70
2022/02/18 14:11:24;;;;;;;3.83;0.80;;;16.00;99.90;;;;;;4975035;28;21001;-70
2022/02/18 14:13:52;;;;;;;7.07;0.70;;;16.00;99.90;;;;;;4974858;28;20454;-70
2022/02/18 14:16:18;;;;;;;1.50;0.60;;;16.00;99.90;;;;;;4975305;28;20283;-70
2022/02/18 14:19:01;;;;;;;2.97;0.87;;;16.00;99.90;;;;;;4974570;28;20462;-70
2022/02/18 14:21:32;;;;;;;1.17;0.63;;;16.10;99.90;;;;;;4973624;28;20503;-71
2022/02/18 14:24:01;;;;;;;1.40;0.70;;;16.10;99.90;;;;;;4971743;28;20459;-71
2022/02/18 14:26:30;;;;;;;2.63;0.60;;;16.10;99.90;;;;;;4973975;28;20951;-71
2022/02/18 14:28:58;;;;;;;0.50;0.50;;;16.10;99.90;;;;;;4975249;28;20923;-71
2022/02/18 14:31:31;;;;;;;2.13;0.60;;;16.10;99.90;;;;;;4974851;28;20485;-71
2022/02/18 14:34:05;;;;;;;3.03;0.70;;;16.10;99.90;;;;;;4974613;28;20482;-70
2022/02/18 14:36:41;;;;;;;2.07;1.07;;;16.00;99.90;;;;;;4973301;28;20455;-71
2022/02/18 14:39:09;;;;;;;1.77;0.70;;;15.90;99.90;;;;;;4975047;28;20458;-71
2022/02/18 14:42:01;;;;;;;2.50;0.60;;;15.90;99.90;;;;;;4974680;28;20820;-70
2022/02/18 14:44:50;;;;;;;1.63;0.60;;;15.80;99.90;;;;;;4974905;28;20930;-71
2022/02/18 14:47:18;;;;;;;1.50;0.90;;;15.80;99.90;;;;;;4974702;28;20444;-70
2022/02/18 14:49:44;;;;;;;3.93;0.90;;;15.80;99.90;;;;;;4974647;28;20487;-71
2022/02/18 14:52:10;;;;;;;4.50;0.83;;;15.80;99.90;;;;;;4974804;28;20439;-70
2022/02/18 14:54:36;;;;;;;3.30;0.60;;;15.80;99.90;;;;;;4974344;28;20903;-71
2022/02/18 14:57:02;;;;;;;2.30;0.63;;;15.80;99.90;;;;;;4974785;28;20946;-71
2022/02/18 14:59:28;;;;;;;1.53;0.70;;;15.80;99.90;;;;;;4974391;28;21142;-71
2022/02/18 15:01:53;;;;;;;2.83;0.57;;;15.80;99.90;;;;;;4974489;28;20448;-72
2022/02/18 15:04:19;;;;;;;1.90;0.63;;;15.90;99.90;;;;;;4973975;28;20584;-71
2022/02/18 15:06:45;;;;;;;2.30;0.63;;;15.90;99.90;;;;;;4956507;28;20652;-69
2022/02/18 15:09:10;;;;;;;3.47;0.70;;;16.00;99.90;;;;;;4955139;29;20188;-71
2022/02/18 15:11:37;;;;;;;1.70;0.90;;;16.00;99.90;;;;;;4955148;29;20689;-71
2022/02/18 15:14:02;;;;;;;1.73;0.83;;;16.00;99.90;;;;;;4954898;29;20183;-71
2022/02/18 15:16:28;;;;;;;8.13;0.70;;;16.00;99.90;;;;;;4955096;29;20415;-71
2022/02/18 15:18:53;;;;;;;1.47;0.83;;;15.90;99.90;;;;;;4953900;29;20642;-72
2022/02/18 15:21:19;;;;;;;1.20;0.70;;;15.90;99.90;;;;;;4955125;29;20271;-69
2022/02/18 15:23:45;;;;;;;0.90;0.70;;;15.80;99.90;;;;;;4954894;29;20188;-71
2022/02/18 15:26:12;;;;;;;6.57;0.80;;;15.70;99.90;;;;;;4955221;29;20169;-71
2022/02/18 15:28:42;;;;;;;3.43;0.80;;;15.70;99.90;;;;;;4954771;29;20261;-72
2022/02/18 15:36:36;;;;;;;1.50;0.80;;;15.50;99.90;;;;;;4954850;29;20432;-72
2022/02/18 15:44:30;;;;;;;2.67;0.80;;;15.40;99.90;;;;;;4954376;29;20419;-72
2022/02/18 15:46:55;;;;;;;3.60;0.80;;;15.40;99.90;;;;;;4953965;28;20421;-71
2022/02/18 15:49:21;;;;;;;0.90;0.70;;;15.40;99.90;;;;;;4954578;29;20283;-71
2022/02/18 15:51:46;;;;;;;2.10;0.80;;;15.30;99.90;;;;;;4976715;28;20247;-72
2022/02/18 15:54:12;;;;;;;1.10;0.70;;;15.30;99.90;;;;;;4964124;28;20258;-72
2022/02/18 15:56:37;;;;;;;1.37;0.83;;;15.30;99.90;;;;;;4972006;28;20649;-71
2022/02/18 15:59:03;;;;;;;2.43;0.60;;;15.20;99.90;;;;;;4973611;28;20600;-71
2022/02/18 16:01:29;;;;;;;2.97;1.07;;;15.20;99.90;;;;;;4972336;28;20617;-71
2022/02/18 16:03:54;;;;;;;6.43;1.00;;;15.20;99.90;;;;;;4973440;28;20180;-71
2022/02/18 16:06:20;;;;;;;4.30;1.20;;;15.20;99.90;;;;;;4973533;28;20183;-71
2022/02/18 16:08:45;;;;;;;6.30;2.57;;;15.10;99.90;;;;;;4973670;28;20207;-73
2022/02/18 16:11:17;;;;;;;2.50;1.13;;;15.10;99.90;;;;;;4969985;28;20208;-72
2022/02/18 16:13:44;;;;;;;1.63;0.70;;;15.20;99.90;;;;;;4970270;28;20172;-71
2022/02/18 16:16:09;;;;;;;1.77;0.80;;;15.20;99.90;;;;;;4972193;28;20411;-72
2022/02/18 16:18:35;;;;;;;2.83;0.83;;;15.10;99.90;;;;;;4972761;28;20850;-72
2022/02/18 16:21:01;;;;;;;2.20;1.20;;;15.10;99.90;;;;;;4969938;28;20208;-73
2022/02/18 16:23:26;;;;;;;1.80;1.07;;;15.00;99.90;;;;;;4969460;28;20223;-73
2022/02/18 16:25:52;;;;;;;2.40;0.63;;;15.00;99.90;;;;;;4968082;28;20184;-74
2022/02/18 16:28:17;;;;;;;2.13;0.60;;;14.90;99.90;;;;;;4971729;28;20258;-72
2022/02/18 16:30:44;;;;;;;1.50;0.63;;;14.90;99.90;;;;;;4972476;28;20210;-71
2022/02/18 16:33:10;;;;;;;3.37;0.70;;;14.90;99.90;;;;;;4970689;28;20192;-72
2022/02/18 16:35:35;;;;;;;2.83;1.00;;;14.90;99.90;;;;;;4970788;28;20531;-72
2022/02/18 16:38:01;;;;;;;4.10;0.80;;;14.80;99.90;;;;;;4972882;28;20172;-73
2022/02/18 16:40:27;;;;;;;3.90;1.10;;;14.80;99.90;;;;;;4972881;28;20268;-73
2022/02/18 16:42:52;;;;;;;3.47;0.97;;;14.70;99.90;;;;;;4967018;28;20203;-72
2022/02/18 16:45:18;;;;;;;1.00;0.57;;;14.70;99.90;;;;;;4969912;28;20184;-72
2022/02/18 16:47:44;;;;;;;3.00;0.80;;;14.70;99.90;;;;;;4969622;28;20198;-72
2022/02/18 16:50:10;;;;;;;4.83;0.80;;;14.80;99.90;;;;;;4965037;28;20467;-73
2022/02/18 16:52:36;;;;;;;2.30;0.60;;;14.80;99.90;;;;;;4968719;28;20208;-72
2022/02/18 16:55:02;;;;;;;1.70;0.50;;;14.70;99.90;;;;;;4968598;28;20431;-72
2022/02/18 16:57:28;;;;;;;9.13;0.90;;;14.70;99.90;;;;;;4969820;28;21103;-70
2022/02/18 16:59:56;;;;;;;3.00;1.40;;;14.80;99.90;;;;;;4971405;28;20583;-77
2022/02/18 17:02:22;;;;;;;0.90;0.90;;;14.70;99.90;;;;;;4964456;28;20247;-71
2022/02/18 17:04:47;;;;;;;2.50;1.97;;;14.70;99.90;;;;;;4971587;28;20851;-71
2022/02/18 17:07:13;;;;;;;1.17;1.07;;;14.70;99.90;;;;;;4972510;28;20653;-71
2022/02/18 17:09:39;;;;;;;1.10;0.88;;;14.70;99.90;;;;;;4966794;28;20444;-74
2022/02/18 17:12:08;;;;;;;0.93;0.80;;;14.70;99.90;;;;;;4969424;28;20254;-72
2022/02/18 17:14:35;;;;;;;2.70;0.70;;;14.70;99.90;;;;;;4971108;28;20259;-73
2022/02/18 17:17:01;;;;;;;1.10;0.60;;;14.70;99.90;;;;;;4972483;28;20502;-73
2022/02/18 17:19:33;;;;;;;0.83;0.83;;;14.70;99.90;;;;;;4971836;28;20463;-72
2022/02/18 17:22:02;;;;;;;3.17;0.60;;;14.70;99.90;;;;;;4963191;28;20196;-73
2022/02/18 17:24:27;;;;;;;1.87;0.60;;;14.80;99.90;;;;;;4969922;28;20423;-73
2022/02/18 17:26:53;;;;;;;1.63;0.70;;;14.80;99.90;;;;;;4968756;28;20760;-72
2022/02/18 17:29:21;;;;;;;0.60;0.60;;;14.70;99.90;;;;;;4968869;28;20204;-74
2022/02/18 17:31:47;;;;;;;2.23;0.90;;;14.70;99.90;;;;;;4971967;28;20474;-74
2022/02/18 17:34:13;;;;;;;1.17;0.70;;;14.70;99.90;;;;;;4972197;28;20855;-74